createdAt,value
2019-01-29T00:00:29.883Z,5.60
2019-01-29T00:01:29.834Z,5.20
2019-01-29T00:02:29.820Z,5.40
2019-01-29T00:03:29.821Z,5.60
2019-01-29T00:04:29.800Z,5.20
2019-01-29T00:05:29.787Z,5.30
2019-01-29T00:06:29.774Z,5.70
2019-01-29T00:07:29.765Z,5.70
2019-01-29T00:08:29.836Z,5.90
2019-01-29T00:09:29.744Z,5.60
2019-01-29T00:10:29.728Z,5.70
2019-01-29T00:11:29.720Z,5.60
2019-01-29T00:12:29.705Z,5.60
2019-01-29T00:13:29.697Z,5.70
2019-01-29T00:14:29.686Z,5.50
2019-01-29T00:15:29.689Z,6.10
2019-01-29T00:16:29.679Z,5.60
2019-01-29T00:17:29.651Z,5.80
2019-01-29T00:18:29.638Z,5.70
2019-01-29T00:19:29.630Z,5.50
2019-01-29T00:20:29.614Z,5.70
2019-01-29T00:21:29.605Z,5.70
2019-01-29T00:22:33.480Z,5.80
2019-01-29T00:23:29.585Z,6.10
2019-01-29T00:24:29.834Z,5.60
2019-01-29T00:25:29.559Z,5.90
2019-01-29T00:26:32.166Z,6.20
2019-01-29T00:27:29.836Z,5.80
2019-01-29T00:28:29.533Z,5.60
2019-01-29T00:29:29.512Z,5.70
2019-01-29T00:30:29.537Z,5.70
2019-01-29T00:31:29.490Z,5.30
2019-01-29T00:32:29.495Z,5.70
2019-01-29T00:33:29.478Z,5.50
2019-01-29T00:34:29.453Z,5.70
2019-01-29T00:35:29.454Z,5.30
2019-01-29T00:36:29.431Z,5.70
2019-01-29T00:37:29.420Z,5.10
2019-01-29T00:38:29.406Z,5.20
2019-01-29T00:39:29.405Z,5.30
2019-01-29T00:40:29.782Z,5.10
2019-01-29T00:41:29.377Z,5.50
2019-01-29T00:42:29.360Z,5.30
2019-01-29T00:43:29.352Z,5.20
2019-01-29T00:44:29.336Z,5.20
2019-01-29T00:45:29.328Z,5.50
2019-01-29T00:46:29.313Z,5.60
2019-01-29T00:47:29.304Z,5.10
2019-01-29T00:48:29.497Z,5.10
2019-01-29T00:49:29.281Z,5.40
2019-01-29T00:50:29.267Z,5.10
2019-01-29T00:51:29.258Z,5.50
2019-01-29T00:52:29.243Z,5.50
2019-01-29T00:53:29.253Z,5.00
2019-01-29T00:54:29.220Z,5.30
2019-01-29T00:55:29.268Z,4.90
2019-01-29T00:56:29.757Z,5.20
2019-01-29T00:57:29.503Z,4.70
2019-01-29T00:58:29.175Z,5.10
2019-01-29T00:59:29.164Z,4.90
2019-01-29T01:00:29.150Z,4.90
2019-01-29T01:01:29.141Z,4.60
2019-01-29T01:02:29.127Z,4.50
2019-01-29T01:03:29.117Z,4.30
2019-01-29T01:04:29.103Z,4.50
2019-01-29T01:05:29.099Z,4.70
2019-01-29T01:06:29.080Z,4.50
2019-01-29T01:07:29.071Z,4.70
2019-01-29T01:08:29.057Z,4.90
2019-01-29T01:09:29.049Z,4.10
2019-01-29T01:10:29.034Z,4.80
2019-01-29T01:11:29.025Z,4.50
2019-01-29T01:12:29.011Z,4.90
2019-01-29T01:13:29.007Z,4.40
2019-01-29T01:14:28.989Z,4.20
2019-01-29T01:15:28.983Z,4.20
2019-01-29T01:16:28.965Z,4.40
2019-01-29T01:17:28.956Z,4.40
2019-01-29T01:18:28.943Z,5.40
2019-01-29T01:19:28.937Z,4.20
2019-01-29T01:20:28.920Z,4.70
2019-01-29T01:21:28.912Z,4.40
2019-01-29T01:22:28.898Z,4.40
2019-01-29T01:23:28.890Z,4.40
2019-01-29T01:24:28.875Z,4.80
2019-01-29T01:25:28.866Z,4.40
2019-01-29T01:26:28.853Z,4.40
2019-01-29T01:27:28.845Z,4.30
2019-01-29T01:28:29.423Z,4.40
2019-01-29T01:29:28.830Z,4.50
2019-01-29T01:30:28.808Z,4.50
2019-01-29T01:31:28.800Z,4.70
2019-01-29T01:32:28.785Z,4.90
2019-01-29T01:33:28.777Z,4.70
2019-01-29T01:34:28.764Z,4.80
2019-01-29T01:35:28.756Z,4.50
2019-01-29T01:36:28.741Z,4.80
2019-01-29T01:37:28.731Z,4.60
2019-01-29T01:38:28.718Z,4.70
2019-01-29T01:39:28.709Z,5.00
2019-01-29T01:40:28.695Z,4.60
2019-01-29T01:41:28.686Z,5.00
2019-01-29T01:42:28.672Z,4.80
2019-01-29T01:43:28.666Z,4.70
2019-01-29T01:44:28.650Z,4.70
2019-01-29T01:45:28.640Z,4.90
2019-01-29T01:46:28.628Z,4.90
2019-01-29T01:47:28.621Z,4.50
2019-01-29T01:48:28.620Z,5.00
2019-01-29T01:49:28.597Z,4.60
2019-01-29T01:50:28.581Z,4.70
2019-01-29T01:51:28.572Z,5.00
2019-01-29T01:52:28.565Z,4.70
2019-01-29T01:53:28.577Z,5.00
2019-01-29T01:54:28.535Z,4.90
2019-01-29T01:55:28.527Z,5.00
2019-01-29T01:56:28.512Z,5.20
2019-01-29T01:57:28.504Z,5.10
2019-01-29T01:58:28.490Z,5.10
2019-01-29T01:59:28.480Z,5.40
2019-01-29T02:00:28.467Z,5.70
2019-01-29T02:01:28.457Z,5.50
2019-01-29T02:02:28.444Z,5.40
2019-01-29T02:03:28.435Z,5.50
2019-01-29T02:04:28.420Z,5.70
2019-01-29T02:05:28.424Z,5.40
2019-01-29T02:06:28.398Z,4.90
2019-01-29T02:07:28.390Z,5.50
2019-01-29T02:08:28.375Z,6.00
2019-01-29T02:09:28.366Z,5.20
2019-01-29T02:10:28.352Z,5.80
2019-01-29T02:11:28.347Z,6.10
2019-01-29T02:12:28.333Z,6.50
2019-01-29T02:13:28.321Z,6.20
2019-01-29T02:14:28.307Z,6.10
2019-01-29T02:15:28.299Z,6.20
2019-01-29T02:16:28.284Z,6.70
2019-01-29T02:17:28.275Z,6.60
2019-01-29T02:18:28.261Z,6.80
2019-01-29T02:19:28.253Z,6.30
2019-01-29T02:20:28.238Z,6.80
2019-01-29T02:21:28.231Z,6.30
2019-01-29T02:22:28.216Z,6.60
2019-01-29T02:23:28.207Z,6.80
2019-01-29T02:24:28.193Z,6.80
2019-01-29T02:25:28.190Z,6.80
2019-01-29T02:26:28.170Z,6.30
2019-01-29T02:27:28.162Z,6.80
2019-01-29T02:28:28.147Z,6.60
2019-01-29T02:29:28.138Z,5.90
2019-01-29T02:30:28.128Z,6.40
2019-01-29T02:31:28.121Z,6.50
2019-01-29T02:32:28.101Z,6.00
2019-01-29T02:33:28.093Z,6.60
2019-01-29T02:34:28.079Z,5.90
2019-01-29T02:35:28.070Z,6.60
2019-01-29T02:36:28.055Z,6.50
2019-01-29T02:37:28.046Z,5.80
2019-01-29T02:38:28.036Z,6.30
2019-01-29T02:39:28.023Z,6.10
2019-01-29T02:40:28.012Z,6.10
2019-01-29T02:41:28.000Z,6.10
2019-01-29T02:42:27.986Z,6.10
2019-01-29T02:43:27.976Z,6.10
2019-01-29T02:44:27.961Z,6.00
2019-01-29T02:45:27.956Z,5.90
2019-01-29T02:46:27.939Z,5.50
2019-01-29T02:47:27.933Z,5.20
2019-01-29T02:48:27.916Z,5.60
2019-01-29T02:49:27.911Z,5.40
2019-01-29T02:50:27.892Z,5.90
2019-01-29T02:51:27.882Z,5.00
2019-01-29T02:52:27.869Z,5.40
2019-01-29T02:53:27.858Z,5.80
2019-01-29T02:54:27.845Z,5.40
2019-01-29T02:55:27.836Z,5.30
2019-01-29T02:56:27.821Z,5.90
2019-01-29T02:57:27.814Z,5.70
2019-01-29T02:58:27.798Z,6.00
2019-01-29T02:59:27.790Z,5.90
2019-01-29T03:00:27.778Z,5.10
2019-01-29T03:01:27.763Z,5.60
2019-01-29T03:02:27.750Z,6.10
2019-01-29T03:03:28.044Z,6.10
2019-01-29T03:04:27.728Z,5.90
2019-01-29T03:05:27.716Z,5.50
2019-01-29T03:06:27.713Z,5.60
2019-01-29T03:07:27.694Z,5.40
2019-01-29T03:08:27.680Z,5.60
2019-01-29T03:09:27.672Z,5.60
2019-01-29T03:10:27.657Z,6.20
2019-01-29T03:11:27.657Z,5.60
2019-01-29T03:12:27.633Z,6.00
2019-01-29T03:13:27.626Z,6.30
2019-01-29T03:14:27.610Z,6.10
2019-01-29T03:15:27.601Z,6.70
2019-01-29T03:16:27.585Z,6.80
2019-01-29T03:17:27.577Z,5.90
2019-01-29T03:18:27.564Z,5.70
2019-01-29T03:19:27.553Z,6.60
2019-01-29T03:20:27.538Z,6.70
2019-01-29T03:21:27.532Z,6.50
2019-01-29T03:22:27.516Z,6.50
2019-01-29T03:23:28.023Z,6.00
2019-01-29T03:24:27.491Z,6.50
2019-01-29T03:25:27.505Z,6.20
2019-01-29T03:26:27.468Z,6.90
2019-01-29T03:27:27.459Z,6.10
2019-01-29T03:28:27.444Z,6.60
2019-01-29T03:29:27.435Z,6.30
2019-01-29T03:30:27.426Z,6.10
2019-01-29T03:31:27.419Z,6.90
2019-01-29T03:32:27.398Z,6.60
2019-01-29T03:33:27.691Z,6.00
2019-01-29T03:34:27.373Z,5.70
2019-01-29T03:35:27.365Z,6.10
2019-01-29T03:36:27.350Z,6.50
2019-01-29T03:37:27.339Z,6.70
2019-01-29T03:38:27.325Z,6.60
2019-01-29T03:39:27.315Z,7.00
2019-01-29T03:40:27.302Z,6.80
2019-01-29T03:41:27.291Z,6.90
2019-01-29T03:42:27.278Z,7.20
2019-01-29T03:43:27.273Z,7.30
2019-01-29T03:44:27.254Z,7.50
2019-01-29T03:45:27.262Z,7.50
2019-01-29T03:46:27.230Z,7.60
2019-01-29T03:47:27.219Z,8.40
2019-01-29T03:48:27.205Z,8.10
2019-01-29T03:49:27.198Z,8.00
2019-01-29T03:50:29.140Z,9.10
2019-01-29T03:51:27.171Z,8.20
2019-01-29T03:52:27.156Z,9.10
2019-01-29T03:53:37.537Z,8.60
2019-01-29T03:54:27.132Z,9.10
2019-01-29T03:55:27.124Z,9.00
2019-01-29T03:56:27.108Z,9.60
2019-01-29T03:57:27.096Z,9.50
2019-01-29T03:58:27.096Z,9.90
2019-01-29T03:59:27.074Z,9.40
2019-01-29T04:00:27.114Z,10.10
2019-01-29T04:01:27.048Z,10.10
2019-01-29T04:02:27.040Z,10.30
2019-01-29T04:03:27.025Z,10.30
2019-01-29T04:04:27.314Z,10.80
2019-01-29T04:05:27.001Z,10.40
2019-01-29T04:06:26.991Z,10.70
2019-01-29T04:07:26.977Z,11.20
2019-01-29T04:08:26.968Z,10.50
2019-01-29T04:09:26.952Z,11.20
2019-01-29T04:10:26.944Z,11.60
2019-01-29T04:11:26.931Z,11.50
2019-01-29T04:12:26.919Z,11.60
2019-01-29T04:13:26.905Z,11.60
2019-01-29T04:14:26.897Z,11.50
2019-01-29T04:15:26.881Z,11.80
2019-01-29T04:16:26.872Z,11.90
2019-01-29T04:17:26.857Z,12.40
2019-01-29T04:18:26.860Z,11.50
2019-01-29T04:19:26.842Z,11.80
2019-01-29T04:20:26.836Z,12.50
2019-01-29T04:21:26.811Z,13.50
2019-01-29T04:22:26.800Z,12.20
2019-01-29T04:23:26.798Z,12.40
2019-01-29T04:24:26.782Z,12.90
2019-01-29T04:25:26.762Z,13.20
2019-01-29T04:26:26.754Z,13.10
2019-01-29T04:27:26.756Z,12.20
2019-01-29T04:28:26.745Z,13.60
2019-01-29T04:29:26.715Z,12.50
2019-01-29T04:30:26.710Z,13.90
2019-01-29T04:31:26.693Z,13.20
2019-01-29T04:32:26.680Z,12.90
2019-01-29T04:33:26.667Z,13.90
2019-01-29T04:34:26.908Z,12.30
2019-01-29T04:35:26.643Z,13.40
2019-01-29T04:36:26.633Z,13.30
2019-01-29T04:37:26.624Z,13.40
2019-01-29T04:38:26.609Z,13.70
2019-01-29T04:39:26.595Z,13.50
2019-01-29T04:40:26.586Z,13.50
2019-01-29T04:41:26.577Z,14.30
2019-01-29T04:42:26.561Z,13.80
2019-01-29T04:43:26.550Z,13.50
2019-01-29T04:44:26.548Z,14.00
2019-01-29T04:45:26.524Z,13.70
2019-01-29T04:46:26.518Z,12.50
2019-01-29T04:47:26.500Z,12.70
2019-01-29T04:48:26.492Z,12.60
2019-01-29T04:49:26.476Z,13.70
2019-01-29T04:50:26.467Z,13.10
2019-01-29T04:51:26.453Z,13.50
2019-01-29T04:52:26.442Z,13.40
2019-01-29T04:53:26.429Z,12.70
2019-01-29T04:54:26.419Z,13.30
2019-01-29T04:55:26.408Z,13.10
2019-01-29T04:56:26.395Z,12.40
2019-01-29T04:57:26.381Z,12.90
2019-01-29T04:58:26.371Z,11.40
2019-01-29T04:59:26.358Z,12.60
2019-01-29T05:00:26.348Z,11.60
2019-01-29T05:01:26.337Z,11.50
2019-01-29T05:02:26.324Z,11.10
2019-01-29T05:03:26.310Z,13.00
2019-01-29T05:04:26.300Z,10.90
2019-01-29T05:05:26.285Z,12.50
2019-01-29T05:06:26.275Z,12.30
2019-01-29T05:07:26.262Z,12.10
2019-01-29T05:08:26.254Z,12.60
2019-01-29T05:09:26.536Z,11.90
2019-01-29T05:10:26.226Z,11.80
2019-01-29T05:11:26.213Z,13.70
2019-01-29T05:12:26.201Z,12.30
2019-01-29T05:13:26.186Z,12.20
2019-01-29T05:14:26.178Z,12.70
2019-01-29T05:15:26.163Z,13.00
2019-01-29T05:16:26.150Z,13.40
2019-01-29T05:17:26.136Z,12.40
2019-01-29T05:18:26.127Z,12.60
2019-01-29T05:19:26.113Z,12.80
2019-01-29T05:20:26.100Z,12.50
2019-01-29T05:21:26.086Z,13.00
2019-01-29T05:22:26.090Z,12.40
2019-01-29T05:23:26.062Z,13.30
2019-01-29T05:24:26.051Z,13.70
2019-01-29T05:25:26.035Z,12.70
2019-01-29T05:26:26.025Z,13.50
2019-01-29T05:27:26.010Z,14.00
2019-01-29T05:28:25.998Z,14.20
2019-01-29T05:29:25.985Z,14.10
2019-01-29T05:30:25.974Z,14.40
2019-01-29T05:31:25.959Z,13.10
2019-01-29T05:32:25.948Z,14.70
2019-01-29T05:33:25.934Z,13.60
2019-01-29T05:34:25.923Z,15.30
2019-01-29T05:35:25.909Z,14.00
2019-01-29T05:36:25.897Z,14.40
2019-01-29T05:37:25.889Z,15.30
2019-01-29T05:38:25.887Z,14.60
2019-01-29T05:39:25.858Z,14.70
2019-01-29T05:40:26.149Z,15.50
2019-01-29T05:41:25.833Z,14.50
2019-01-29T05:42:25.827Z,13.60
2019-01-29T05:43:25.807Z,14.60
2019-01-29T05:44:25.795Z,13.70
2019-01-29T05:45:25.782Z,12.90
2019-01-29T05:46:25.769Z,12.70
2019-01-29T05:47:25.756Z,13.70
2019-01-29T05:48:25.743Z,12.00
2019-01-29T05:49:25.728Z,12.80
2019-01-29T05:50:25.718Z,13.50
2019-01-29T05:51:25.704Z,13.30
2019-01-29T05:52:25.692Z,13.30
2019-01-29T05:53:25.677Z,13.50
2019-01-29T05:54:25.668Z,14.10
2019-01-29T05:55:25.651Z,12.90
2019-01-29T05:56:25.639Z,14.50
2019-01-29T05:57:25.626Z,15.10
2019-01-29T05:58:25.615Z,13.20
2019-01-29T05:59:25.599Z,12.50
2019-01-29T06:00:25.588Z,14.70
2019-01-29T06:01:25.573Z,15.30
2019-01-29T06:02:25.563Z,14.80
2019-01-29T06:03:25.548Z,16.30
2019-01-29T06:04:25.536Z,16.60
2019-01-29T06:05:25.522Z,15.30
2019-01-29T06:06:25.510Z,16.40
2019-01-29T06:07:25.495Z,17.00
2019-01-29T06:08:25.483Z,17.50
2019-01-29T06:09:25.468Z,17.40
2019-01-29T06:10:25.469Z,18.80
2019-01-29T06:11:25.444Z,18.50
2019-01-29T06:12:25.431Z,17.80
2019-01-29T06:13:25.417Z,17.50
2019-01-29T06:14:25.433Z,18.30
2019-01-29T06:15:25.391Z,17.90
2019-01-29T06:16:25.380Z,17.30
2019-01-29T06:17:27.552Z,17.60
2019-01-29T06:18:25.355Z,15.60
2019-01-29T06:19:25.344Z,15.00
2019-01-29T06:20:25.331Z,14.40
2019-01-29T06:21:25.327Z,16.30
2019-01-29T06:22:25.305Z,16.60
2019-01-29T06:23:25.289Z,16.80
2019-01-29T06:24:26.149Z,17.60
2019-01-29T06:25:25.267Z,16.90
2019-01-29T06:26:25.253Z,18.50
2019-01-29T06:27:25.246Z,17.30
2019-01-29T06:28:25.226Z,18.10
2019-01-29T06:29:25.211Z,17.80
2019-01-29T06:30:25.200Z,18.80
2019-01-29T06:31:25.186Z,17.80
2019-01-29T06:32:25.174Z,18.50
2019-01-29T06:33:25.159Z,19.30
2019-01-29T06:34:25.149Z,18.00
2019-01-29T06:35:25.134Z,19.30
2019-01-29T06:36:25.125Z,19.00
2019-01-29T06:37:25.111Z,18.40
2019-01-29T06:38:25.097Z,20.30
2019-01-29T06:39:25.083Z,20.70
2019-01-29T06:40:25.071Z,20.10
2019-01-29T06:41:25.056Z,20.10
2019-01-29T06:42:25.046Z,19.90
2019-01-29T06:43:25.032Z,20.80
2019-01-29T06:44:25.023Z,20.40
2019-01-29T06:45:25.005Z,21.70
2019-01-29T06:46:24.995Z,21.10
2019-01-29T06:47:24.981Z,22.40
2019-01-29T06:48:24.968Z,20.60
2019-01-29T06:49:24.962Z,21.60
2019-01-29T06:50:24.956Z,21.10
2019-01-29T06:51:24.929Z,19.40
2019-01-29T06:52:24.918Z,19.60
2019-01-29T06:53:24.905Z,20.50
2019-01-29T06:54:24.907Z,21.30
2019-01-29T06:55:24.880Z,7.70
2019-01-29T06:56:24.907Z,18.10
2019-01-29T06:57:24.853Z,20.80
2019-01-29T06:58:24.843Z,20.80
2019-01-29T06:59:24.828Z,17.70
2019-01-29T07:00:24.816Z,19.30
2019-01-29T07:01:24.802Z,15.70
2019-01-29T07:02:24.792Z,19.60
2019-01-29T07:03:24.777Z,16.90
2019-01-29T07:04:24.766Z,14.50
2019-01-29T07:05:24.753Z,18.10
2019-01-29T07:06:24.740Z,19.30
2019-01-29T07:07:24.726Z,15.60
2019-01-29T07:08:24.714Z,18.20
2019-01-29T07:09:24.949Z,21.60
2019-01-29T07:10:24.689Z,19.30
2019-01-29T07:11:24.674Z,21.90
2019-01-29T07:12:24.662Z,21.70
2019-01-29T07:13:24.647Z,21.50
2019-01-29T07:14:24.637Z,17.40
2019-01-29T07:15:24.624Z,16.80
2019-01-29T07:16:24.613Z,14.00
2019-01-29T07:17:24.597Z,20.70
2019-01-29T07:18:24.587Z,18.70
2019-01-29T07:19:24.571Z,21.80
2019-01-29T07:20:24.560Z,20.80
2019-01-29T07:21:24.544Z,20.40
2019-01-29T07:22:24.534Z,21.50
2019-01-29T07:23:24.519Z,20.10
2019-01-29T07:24:24.508Z,19.80
2019-01-29T07:25:24.494Z,18.70
2019-01-29T07:26:24.483Z,21.10
2019-01-29T07:27:24.472Z,20.40
2019-01-29T07:28:24.457Z,20.30
2019-01-29T07:29:24.442Z,18.70
2019-01-29T07:30:24.434Z,14.70
2019-01-29T07:31:24.418Z,19.40
2019-01-29T07:32:24.406Z,17.60
2019-01-29T07:33:24.392Z,18.50
2019-01-29T07:34:24.381Z,18.90
2019-01-29T07:35:24.367Z,15.60
2019-01-29T07:36:24.355Z,17.60
2019-01-29T07:37:24.341Z,12.10
2019-01-29T07:38:24.332Z,12.70
2019-01-29T07:39:24.316Z,16.90
2019-01-29T07:40:24.309Z,16.60
2019-01-29T07:41:24.292Z,15.60
2019-01-29T07:42:24.287Z,14.00
2019-01-29T07:43:24.266Z,16.50
2019-01-29T07:44:24.255Z,13.00
2019-01-29T07:45:24.240Z,16.90
2019-01-29T07:46:24.231Z,17.40
2019-01-29T07:47:24.216Z,17.00
2019-01-29T07:48:24.205Z,12.50
2019-01-29T07:49:24.190Z,14.70
2019-01-29T07:50:24.187Z,15.90
2019-01-29T07:51:24.170Z,17.00
2019-01-29T07:52:24.156Z,16.50
2019-01-29T07:53:24.202Z,16.70
2019-01-29T07:54:24.131Z,16.20
2019-01-29T07:55:24.117Z,14.90
2019-01-29T07:56:24.106Z,12.20
2019-01-29T07:57:24.092Z,15.20
2019-01-29T07:58:24.083Z,15.90
2019-01-29T07:59:32.463Z,15.30
2019-01-29T08:00:24.057Z,13.50
2019-01-29T08:01:24.044Z,16.10
2019-01-29T08:02:24.048Z,16.30
2019-01-29T08:03:24.021Z,16.10
2019-01-29T08:04:24.009Z,13.40
2019-01-29T08:05:23.996Z,15.50
2019-01-29T08:06:23.991Z,13.30
2019-01-29T08:07:23.972Z,14.30
2019-01-29T08:08:23.960Z,15.70
2019-01-29T08:09:23.946Z,14.90
2019-01-29T08:10:24.767Z,14.80
2019-01-29T08:11:23.939Z,15.20
2019-01-29T08:12:23.911Z,14.50
2019-01-29T08:13:23.900Z,15.00
2019-01-29T08:14:23.885Z,13.40
2019-01-29T08:15:23.876Z,11.90
2019-01-29T08:16:23.860Z,14.00
2019-01-29T08:17:23.850Z,14.80
2019-01-29T08:18:23.837Z,15.30
2019-01-29T08:19:23.827Z,11.40
2019-01-29T08:20:23.810Z,14.40
2019-01-29T08:21:23.800Z,13.00
2019-01-29T08:22:23.787Z,14.50
2019-01-29T08:23:23.777Z,12.60
2019-01-29T08:24:23.761Z,12.40
2019-01-29T08:25:23.751Z,15.80
2019-01-29T08:26:23.740Z,15.00
2019-01-29T08:27:23.727Z,14.60
2019-01-29T08:28:23.711Z,16.00
2019-01-29T08:29:23.702Z,15.60
2019-01-29T08:30:23.702Z,15.80
2019-01-29T08:31:23.677Z,17.00
2019-01-29T08:32:23.662Z,17.50
2019-01-29T08:33:23.652Z,17.10
2019-01-29T08:34:23.640Z,19.00
2019-01-29T08:35:23.627Z,19.30
2019-01-29T08:36:23.612Z,19.90
2019-01-29T08:37:23.605Z,19.40
2019-01-29T08:38:23.588Z,19.70
2019-01-29T08:39:23.579Z,20.90
2019-01-29T08:40:23.564Z,19.60
2019-01-29T08:41:23.556Z,18.60
2019-01-29T08:42:23.540Z,17.50
2019-01-29T08:43:23.530Z,20.10
2019-01-29T08:44:23.515Z,16.80
2019-01-29T08:45:23.505Z,19.30
2019-01-29T08:46:23.513Z,21.10
2019-01-29T08:47:23.481Z,20.10
2019-01-29T08:48:23.465Z,21.00
2019-01-29T08:49:23.457Z,19.10
2019-01-29T08:50:23.445Z,20.00
2019-01-29T08:51:23.433Z,21.00
2019-01-29T08:52:23.418Z,20.30
2019-01-29T08:53:23.415Z,21.10
2019-01-29T08:54:23.394Z,17.30
2019-01-29T08:55:23.384Z,19.90
2019-01-29T08:56:23.369Z,21.10
2019-01-29T08:57:23.360Z,21.90
2019-01-29T08:58:27.308Z,19.40
2019-01-29T08:59:23.336Z,22.10
2019-01-29T09:00:23.336Z,20.80
2019-01-29T09:01:23.313Z,20.10
2019-01-29T09:02:23.298Z,17.80
2019-01-29T09:03:23.287Z,22.20
2019-01-29T09:04:23.272Z,22.30
2019-01-29T09:05:23.263Z,23.10
2019-01-29T09:06:23.249Z,21.70
2019-01-29T09:07:23.239Z,21.70
2019-01-29T09:08:23.224Z,21.60
2019-01-29T09:09:23.214Z,18.40
2019-01-29T09:10:23.204Z,23.00
2019-01-29T09:11:23.190Z,20.10
2019-01-29T09:12:23.175Z,22.70
2019-01-29T09:13:23.179Z,23.00
2019-01-29T09:14:23.152Z,23.30
2019-01-29T09:15:23.142Z,20.70
2019-01-29T09:16:23.133Z,23.10
2019-01-29T09:17:23.117Z,22.50
2019-01-29T09:18:23.103Z,20.10
2019-01-29T09:19:23.094Z,20.30
2019-01-29T09:20:23.081Z,21.50
2019-01-29T09:21:23.078Z,24.90
2019-01-29T09:22:23.055Z,23.00
2019-01-29T09:23:23.045Z,24.00
2019-01-29T09:24:23.030Z,21.30
2019-01-29T09:25:23.021Z,22.30
2019-01-29T09:26:23.008Z,23.50
2019-01-29T09:27:22.997Z,24.00
2019-01-29T09:28:22.987Z,22.80
2019-01-29T09:29:22.973Z,19.90
2019-01-29T09:30:22.963Z,23.20
2019-01-29T09:31:22.966Z,22.90
2019-01-29T09:32:22.934Z,23.30
2019-01-29T09:33:22.925Z,24.10
2019-01-29T09:34:22.911Z,22.10
2019-01-29T09:35:22.902Z,22.90
2019-01-29T09:36:22.889Z,22.80
2019-01-29T09:37:22.879Z,22.60
2019-01-29T09:38:22.865Z,19.30
2019-01-29T09:39:22.856Z,24.10
2019-01-29T09:40:22.842Z,25.20
2019-01-29T09:41:22.832Z,24.70
2019-01-29T09:42:22.818Z,23.60
2019-01-29T09:43:22.809Z,22.80
2019-01-29T09:44:22.794Z,22.80
2019-01-29T09:45:22.786Z,21.00
2019-01-29T09:46:22.772Z,18.90
2019-01-29T09:47:22.766Z,22.80
2019-01-29T09:48:22.750Z,22.80
2019-01-29T09:49:22.740Z,21.70
2019-01-29T09:50:22.730Z,21.90
2019-01-29T09:51:22.717Z,14.70
2019-01-29T09:52:22.703Z,19.10
2019-01-29T09:53:22.693Z,21.20
2019-01-29T09:54:22.680Z,20.30
2019-01-29T09:55:28.914Z,22.40
2019-01-29T09:56:22.656Z,23.00
2019-01-29T09:57:22.648Z,19.90
2019-01-29T09:58:22.633Z,18.70
2019-01-29T09:59:22.627Z,22.20
2019-01-29T10:00:22.609Z,22.60
2019-01-29T10:01:22.600Z,23.10
2019-01-29T10:02:22.588Z,23.10
2019-01-29T10:03:22.579Z,22.00
2019-01-29T10:04:22.563Z,22.70
2019-01-29T10:05:22.554Z,20.90
2019-01-29T10:06:22.540Z,22.80
2019-01-29T10:07:22.531Z,17.80
2019-01-29T10:08:22.516Z,22.10
2019-01-29T10:09:22.808Z,22.90
2019-01-29T10:10:22.494Z,22.10
2019-01-29T10:11:22.486Z,23.00
2019-01-29T10:12:22.472Z,23.60
2019-01-29T10:13:22.463Z,19.80
2019-01-29T10:14:22.449Z,12.40
2019-01-29T10:15:22.439Z,21.00
2019-01-29T10:16:22.425Z,22.50
2019-01-29T10:17:22.418Z,21.80
2019-01-29T10:18:22.402Z,23.00
2019-01-29T10:19:22.395Z,21.60
2019-01-29T10:20:22.382Z,23.80
2019-01-29T10:21:22.371Z,21.20
2019-01-29T10:22:22.360Z,19.00
2019-01-29T10:23:22.354Z,20.70
2019-01-29T10:24:22.335Z,22.80
2019-01-29T10:25:22.325Z,23.60
2019-01-29T10:26:22.312Z,24.00
2019-01-29T10:27:22.303Z,22.90
2019-01-29T10:28:22.290Z,23.00
2019-01-29T10:29:22.283Z,22.20
2019-01-29T10:30:22.268Z,21.40
2019-01-29T10:31:24.264Z,20.80
2019-01-29T10:32:22.245Z,23.20
2019-01-29T10:33:22.236Z,23.00
2019-01-29T10:34:22.223Z,23.10
2019-01-29T10:35:22.225Z,22.90
2019-01-29T10:36:22.201Z,21.30
2019-01-29T10:37:22.193Z,20.00
2019-01-29T10:38:22.179Z,21.70
2019-01-29T10:39:22.173Z,21.70
2019-01-29T10:40:22.166Z,24.00
2019-01-29T10:41:22.149Z,25.60
2019-01-29T10:42:22.135Z,21.20
2019-01-29T10:43:22.127Z,22.40
2019-01-29T10:44:22.116Z,22.50
2019-01-29T10:45:22.105Z,20.40
2019-01-29T10:46:22.097Z,23.10
2019-01-29T10:47:22.084Z,22.90
2019-01-29T10:48:22.071Z,22.20
2019-01-29T10:49:22.061Z,21.60
2019-01-29T10:50:22.050Z,21.30
2019-01-29T10:51:22.040Z,21.60
2019-01-29T10:52:22.028Z,22.60
2019-01-29T10:53:22.018Z,16.10
2019-01-29T10:54:22.004Z,20.50
2019-01-29T10:55:21.996Z,18.50
2019-01-29T10:56:21.982Z,20.90
2019-01-29T10:57:21.975Z,21.10
2019-01-29T10:58:21.963Z,22.70
2019-01-29T10:59:21.952Z,25.30
2019-01-29T11:00:21.939Z,23.20
2019-01-29T11:01:21.932Z,24.30
2019-01-29T11:02:21.917Z,24.10
2019-01-29T11:03:21.908Z,24.50
2019-01-29T11:04:21.894Z,24.10
2019-01-29T11:05:21.887Z,24.70
2019-01-29T11:06:21.873Z,23.00
2019-01-29T11:07:21.866Z,25.30
2019-01-29T11:08:21.852Z,25.30
2019-01-29T11:09:25.611Z,24.80
2019-01-29T11:10:21.866Z,25.40
2019-01-29T11:11:21.821Z,25.30
2019-01-29T11:12:21.807Z,23.70
2019-01-29T11:13:21.799Z,25.00
2019-01-29T11:14:21.788Z,19.90
2019-01-29T11:15:21.778Z,21.50
2019-01-29T11:16:21.767Z,21.90
2019-01-29T11:17:21.757Z,26.00
2019-01-29T11:18:21.746Z,26.80
2019-01-29T11:19:21.737Z,28.50
2019-01-29T11:20:21.725Z,27.80
2019-01-29T11:21:21.714Z,26.40
2019-01-29T11:22:21.699Z,29.20
2019-01-29T11:23:21.691Z,28.50
2019-01-29T11:24:21.677Z,28.70
2019-01-29T11:25:21.669Z,27.40
2019-01-29T11:26:21.657Z,29.30
2019-01-29T11:27:21.648Z,22.60
2019-01-29T11:28:21.635Z,27.70
2019-01-29T11:29:21.626Z,29.10
2019-01-29T11:30:21.613Z,28.80
2019-01-29T11:31:21.605Z,30.50
2019-01-29T11:32:21.591Z,25.80
2019-01-29T11:33:21.590Z,28.30
2019-01-29T11:34:21.570Z,28.50
2019-01-29T11:35:21.563Z,28.40
2019-01-29T11:36:21.549Z,27.30
2019-01-29T11:37:21.544Z,28.50
2019-01-29T11:38:21.531Z,29.20
2019-01-29T11:39:21.523Z,27.20
2019-01-29T11:40:21.516Z,26.90
2019-01-29T11:41:21.499Z,27.80
2019-01-29T11:42:21.488Z,27.90
2019-01-29T11:43:21.480Z,27.60
2019-01-29T11:44:21.466Z,27.20
2019-01-29T11:45:21.458Z,23.60
2019-01-29T11:46:21.446Z,25.40
2019-01-29T11:47:21.439Z,26.30
2019-01-29T11:48:21.428Z,26.20
2019-01-29T11:49:21.418Z,23.40
2019-01-29T11:50:21.409Z,22.60
2019-01-29T11:51:21.399Z,22.00
2019-01-29T11:52:21.386Z,16.20
2019-01-29T11:53:21.379Z,22.10
2019-01-29T11:54:21.367Z,18.60
2019-01-29T11:55:21.360Z,20.90
2019-01-29T11:56:21.349Z,20.60
2019-01-29T11:57:21.342Z,21.20
2019-01-29T11:58:21.330Z,18.70
2019-01-29T11:59:21.322Z,21.20
2019-01-29T12:00:21.315Z,12.80
2019-01-29T12:01:21.318Z,17.20
2019-01-29T12:02:28.208Z,17.40
2019-01-29T12:03:21.284Z,13.40
2019-01-29T12:04:21.522Z,12.20
2019-01-29T12:05:21.266Z,18.40
2019-01-29T12:06:21.259Z,18.60
2019-01-29T12:07:21.263Z,18.60
2019-01-29T12:08:21.233Z,18.60
2019-01-29T12:09:21.226Z,13.40
2019-01-29T12:10:21.216Z,16.90
2019-01-29T12:11:21.209Z,16.30
2019-01-29T12:12:21.196Z,12.50
2019-01-29T12:13:21.188Z,18.00
2019-01-29T12:14:21.175Z,15.30
2019-01-29T12:15:21.168Z,16.60
2019-01-29T12:16:21.155Z,12.70
2019-01-29T12:17:21.147Z,18.30
2019-01-29T12:18:21.135Z,18.80
2019-01-29T12:19:21.128Z,13.20
2019-01-29T12:20:21.114Z,14.40
2019-01-29T12:21:21.106Z,12.00
2019-01-29T12:22:21.095Z,13.50
2019-01-29T12:23:21.087Z,17.20
2019-01-29T12:24:21.074Z,14.60
2019-01-29T12:25:21.067Z,14.70
2019-01-29T12:26:21.055Z,17.80
2019-01-29T12:27:21.047Z,18.50
2019-01-29T12:28:21.035Z,17.70
2019-01-29T12:29:21.028Z,19.50
2019-01-29T12:30:21.057Z,18.90
2019-01-29T12:31:21.006Z,12.90
2019-01-29T12:32:20.998Z,10.80
2019-01-29T12:33:20.987Z,15.30
2019-01-29T12:34:21.037Z,16.60
2019-01-29T12:35:20.968Z,14.50
2019-01-29T12:36:20.962Z,12.30
2019-01-29T12:37:20.958Z,11.40
2019-01-29T12:38:20.941Z,13.60
2019-01-29T12:39:20.934Z,14.50
2019-01-29T12:40:20.923Z,16.60
2019-01-29T12:41:20.911Z,13.60
2019-01-29T12:42:20.903Z,16.20
2019-01-29T12:43:20.893Z,15.50
2019-01-29T12:44:20.884Z,17.40
2019-01-29T12:45:20.873Z,16.90
2019-01-29T12:46:20.869Z,17.40
2019-01-29T12:47:20.855Z,16.00
2019-01-29T12:48:20.847Z,18.20
2019-01-29T12:49:20.840Z,16.70
2019-01-29T12:50:20.829Z,13.40
2019-01-29T12:51:20.818Z,17.00
2019-01-29T12:52:20.811Z,14.20
2019-01-29T12:53:20.798Z,15.70
2019-01-29T12:54:20.792Z,15.60
2019-01-29T12:55:20.779Z,17.40
2019-01-29T12:56:21.526Z,18.40
2019-01-29T12:57:20.760Z,18.50
2019-01-29T12:58:20.753Z,18.70
2019-01-29T12:59:20.740Z,19.00
2019-01-29T13:00:20.733Z,19.70